Terminal Aerodrome Forecast
Issued by NWS Missoula, MT

Home | Current Version | Previous Version | Text Only | Print | Product List | Glossary On
Versions: 1 2 3 4 5 6 7 8 9 10 11 12
000
FTUS45 KMSO 031731
TAFMSO
TAF
KMSO 031731Z 0318/0418 VRB05KT 6SM HZ FEW110
     FM032200 29008KT P6SM VCSH BKN120
     FM040800 23012G20KT P6SM -SHRA OVC100
     FM041000 VRB06KT P6SM -SHRA BKN100=

USA.gov is the U.S. government's official web portal to all federal, state and local government web resources and services.